createdAt,value
2022-12-14T00:01:56.014Z,6.33
2022-12-14T00:04:24.049Z,6.97
2022-12-14T00:06:52.482Z,6.57
2022-12-14T00:09:20.474Z,6.67
2022-12-14T00:11:51.629Z,6.93
2022-12-14T00:14:19.675Z,7.20
2022-12-14T00:16:48.785Z,6.57
2022-12-14T00:19:17.008Z,6.37
2022-12-14T00:21:45.866Z,6.00
2022-12-14T00:24:14.019Z,7.10
2022-12-14T00:26:42.068Z,6.30
2022-12-14T00:29:11.739Z,6.47
2022-12-14T00:31:39.782Z,6.23
2022-12-14T00:34:07.848Z,6.33
2022-12-14T00:36:37.630Z,6.30
2022-12-14T00:39:05.766Z,5.93
2022-12-14T00:41:33.815Z,5.60
2022-12-14T00:44:01.808Z,6.47
2022-12-14T00:46:31.291Z,6.03
2022-12-14T00:48:59.377Z,5.63
2022-12-14T00:51:27.427Z,5.60
2022-12-14T00:53:55.452Z,5.70
2022-12-14T00:56:23.524Z,5.70
2022-12-14T00:58:52.658Z,5.67
2022-12-14T01:01:21.806Z,6.20
2022-12-14T01:03:51.466Z,5.80
2022-12-14T01:06:21.603Z,5.60
2022-12-14T01:08:50.152Z,5.20
2022-12-14T01:11:18.195Z,5.20
2022-12-14T01:13:49.548Z,5.20
2022-12-14T01:16:18.944Z,5.10
2022-12-14T01:18:47.093Z,5.60
2022-12-14T01:21:18.739Z,5.07
2022-12-14T01:23:47.850Z,5.30
2022-12-14T01:26:17.487Z,5.10
2022-12-14T01:28:46.158Z,4.17
2022-12-14T01:31:16.622Z,4.67
2022-12-14T01:33:45.564Z,4.93
2022-12-14T01:36:16.415Z,5.13
2022-12-14T01:38:44.668Z,5.13
2022-12-14T01:41:24.675Z,4.67
2022-12-14T01:43:54.106Z,5.27
2022-12-14T01:46:29.282Z,5.07
2022-12-14T01:49:01.577Z,4.80
2022-12-14T01:51:32.723Z,4.43
2022-12-14T01:54:03.725Z,4.60
2022-12-14T01:56:35.595Z,5.17
2022-12-14T01:59:07.324Z,5.37
2022-12-14T02:01:35.998Z,5.30
2022-12-14T02:04:05.724Z,4.70
2022-12-14T02:06:39.254Z,5.13
2022-12-14T02:09:11.107Z,5.60
2022-12-14T02:11:45.633Z,4.73
2022-12-14T02:14:13.882Z,4.43
2022-12-14T02:16:42.312Z,4.40
2022-12-14T02:19:10.476Z,4.40
2022-12-14T02:22:09.136Z,4.90
2022-12-14T02:24:55.153Z,4.40
2022-12-14T02:27:49.536Z,4.93
2022-12-14T02:30:20.751Z,4.73
2022-12-14T02:33:07.632Z,5.53
2022-12-14T02:35:50.246Z,5.23
2022-12-14T02:38:34.319Z,5.30
2022-12-14T02:41:11.284Z,5.03
2022-12-14T02:43:50.198Z,4.57
2022-12-14T02:46:25.989Z,4.93
2022-12-14T02:49:00.267Z,5.00
2022-12-14T02:51:40.561Z,4.83
2022-12-14T02:54:14.679Z,4.67
2022-12-14T02:56:49.566Z,4.40
2022-12-14T02:59:19.488Z,4.97
2022-12-14T03:01:50.987Z,4.63
2022-12-14T03:04:20.402Z,4.60
2022-12-14T03:06:58.782Z,4.90
2022-12-14T03:09:30.939Z,5.20
2022-12-14T03:12:03.783Z,4.60
2022-12-14T03:14:35.279Z,4.70
2022-12-14T03:17:19.006Z,4.23
2022-12-14T03:19:51.795Z,4.63
2022-12-14T03:22:24.559Z,5.77
2022-12-14T03:24:56.091Z,4.90
2022-12-14T03:27:28.197Z,5.20
2022-12-14T03:30:00.821Z,4.57
2022-12-14T03:32:34.303Z,4.87
2022-12-14T03:35:05.563Z,4.53
2022-12-14T03:37:39.194Z,4.70
2022-12-14T03:40:10.461Z,4.80
2022-12-14T03:42:44.580Z,5.53
2022-12-14T03:45:21.816Z,4.63
2022-12-14T03:48:00.531Z,4.87
2022-12-14T03:50:35.067Z,4.47
2022-12-14T03:53:08.445Z,5.23
2022-12-14T03:55:39.674Z,4.90
2022-12-14T03:58:25.992Z,4.53
2022-12-14T04:00:58.833Z,5.30
2022-12-14T04:03:38.983Z,4.93
2022-12-14T04:06:13.188Z,4.67
2022-12-14T04:08:48.808Z,5.63
2022-12-14T04:11:43.728Z,5.23
2022-12-14T04:14:35.369Z,5.10
2022-12-14T04:17:26.259Z,5.20
2022-12-14T04:20:01.445Z,5.83
2022-12-14T04:22:33.987Z,5.50
2022-12-14T04:25:29.302Z,4.77
2022-12-14T04:28:00.734Z,5.03
2022-12-14T04:30:29.092Z,5.70
2022-12-14T04:33:21.263Z,5.63
2022-12-14T04:35:52.930Z,6.03
2022-12-14T04:38:27.379Z,7.47
2022-12-14T04:40:58.816Z,6.07
2022-12-14T04:43:31.064Z,6.10
2022-12-14T04:46:05.109Z,6.53
2022-12-14T04:48:38.171Z,5.73
2022-12-14T04:51:11.995Z,6.10
2022-12-14T04:53:41.614Z,5.93
2022-12-14T04:56:13.642Z,5.30
2022-12-14T04:58:42.396Z,5.13
2022-12-14T05:01:24.624Z,4.10
2022-12-14T05:04:02.332Z,3.73
2022-12-14T05:06:38.644Z,3.77
2022-12-14T05:09:14.000Z,3.60
2022-12-14T05:11:54.689Z,4.27
2022-12-14T05:14:30.639Z,4.93
2022-12-14T05:17:03.421Z,3.90
2022-12-14T05:19:34.860Z,3.30
2022-12-14T05:22:07.924Z,4.33
2022-12-14T05:24:36.000Z,4.10
2022-12-14T05:27:04.030Z,5.57
2022-12-14T05:29:32.152Z,3.97
2022-12-14T05:32:00.798Z,4.10
2022-12-14T05:34:28.910Z,4.17
2022-12-14T05:36:56.984Z,3.57
2022-12-14T05:39:26.385Z,3.97
2022-12-14T05:41:54.524Z,5.03
2022-12-14T05:44:22.618Z,4.13
2022-12-14T05:46:50.619Z,4.33
2022-12-14T05:49:18.623Z,5.27
2022-12-14T05:51:46.849Z,5.97
2022-12-14T05:54:15.708Z,3.90
2022-12-14T05:56:45.067Z,5.03
2022-12-14T05:59:15.608Z,4.80
2022-12-14T06:01:44.254Z,4.20
2022-12-14T06:04:12.624Z,5.20
2022-12-14T06:06:40.855Z,4.80
2022-12-14T06:09:11.030Z,5.03
2022-12-14T06:11:40.688Z,5.83
2022-12-14T06:14:10.835Z,4.33
2022-12-14T06:16:41.673Z,5.73
2022-12-14T06:19:10.575Z,4.43
2022-12-14T06:21:41.199Z,4.07
2022-12-14T06:24:11.691Z,4.57
2022-12-14T06:26:41.596Z,6.57
2022-12-14T06:29:16.521Z,6.47
2022-12-14T06:31:44.804Z,5.20
2022-12-14T06:34:18.890Z,5.43
2022-12-14T06:36:47.932Z,6.07
2022-12-14T06:39:17.574Z,5.43
2022-12-14T06:41:49.637Z,3.97
2022-12-14T06:44:19.288Z,5.47
2022-12-14T06:46:47.603Z,5.23
2022-12-14T06:49:17.376Z,5.13
2022-12-14T06:51:45.532Z,3.83
2022-12-14T06:54:14.427Z,4.80
2022-12-14T06:56:42.876Z,5.33
2022-12-14T06:59:11.318Z,6.33
2022-12-14T07:01:41.674Z,3.97
2022-12-14T07:04:09.873Z,5.17
2022-12-14T07:06:40.436Z,5.67
2022-12-14T07:09:13.026Z,5.83
2022-12-14T07:11:41.443Z,6.03
2022-12-14T07:14:12.419Z,5.97
2022-12-14T07:16:45.214Z,7.57
2022-12-14T07:19:16.290Z,5.43
2022-12-14T07:21:44.360Z,5.83
2022-12-14T07:24:12.407Z,4.17
2022-12-14T07:26:40.404Z,6.07
2022-12-14T07:29:09.219Z,7.07
2022-12-14T07:31:37.222Z,4.13
2022-12-14T07:34:06.745Z,5.10
2022-12-14T07:36:34.766Z,5.13
2022-12-14T07:39:02.804Z,5.13
2022-12-14T07:41:32.329Z,5.57
2022-12-14T07:44:01.498Z,5.93
2022-12-14T07:46:31.910Z,5.57
2022-12-14T07:49:01.050Z,4.87
2022-12-14T07:51:32.419Z,4.90
2022-12-14T07:54:01.584Z,5.27
2022-12-14T07:56:31.470Z,5.70
2022-12-14T07:59:01.479Z,6.83
2022-12-14T08:01:31.630Z,5.67
2022-12-14T08:04:01.632Z,5.20
2022-12-14T08:06:36.361Z,4.97
2022-12-14T08:09:05.223Z,5.80
2022-12-14T08:11:33.283Z,5.37
2022-12-14T08:14:03.001Z,6.77
2022-12-14T08:16:31.595Z,6.47
2022-12-14T08:19:00.589Z,6.63
2022-12-14T08:21:28.988Z,7.53
2022-12-14T08:23:59.192Z,7.33
2022-12-14T08:26:34.943Z,6.20
2022-12-14T08:29:04.477Z,6.67
2022-12-14T08:31:33.435Z,5.83
2022-12-14T08:34:03.017Z,5.87
2022-12-14T08:36:34.015Z,5.47
2022-12-14T08:39:05.905Z,6.50
2022-12-14T08:41:34.012Z,5.50
2022-12-14T08:44:03.304Z,6.43
2022-12-14T08:46:34.097Z,5.97
2022-12-14T08:49:02.313Z,10.63
2022-12-14T08:51:31.187Z,4.83
2022-12-14T08:53:59.267Z,6.50
2022-12-14T08:56:29.539Z,13.73
2022-12-14T08:58:58.158Z,7.07
2022-12-14T09:01:32.708Z,7.20
2022-12-14T09:04:03.781Z,8.27
2022-12-14T09:06:33.799Z,6.50
2022-12-14T09:09:01.898Z,6.73
2022-12-14T09:11:31.362Z,9.43
2022-12-14T09:13:59.489Z,9.33
2022-12-14T09:16:27.789Z,13.67
2022-12-14T09:18:56.113Z,10.23
2022-12-14T09:21:24.627Z,7.70
2022-12-14T09:23:58.924Z,7.17
2022-12-14T09:26:28.075Z,6.80
2022-12-14T09:28:58.328Z,5.90
2022-12-14T09:31:28.178Z,6.67
2022-12-14T09:33:56.878Z,5.33
2022-12-14T09:36:27.274Z,5.17
2022-12-14T09:38:56.559Z,7.23
2022-12-14T09:41:37.534Z,7.70
2022-12-14T09:44:18.794Z,6.10
2022-12-14T09:46:57.137Z,6.10
2022-12-14T09:49:29.026Z,8.50
2022-12-14T09:52:00.118Z,11.13
2022-12-14T09:54:30.516Z,8.97
2022-12-14T09:57:02.421Z,11.07
2022-12-14T09:59:34.931Z,8.33
2022-12-14T10:02:36.474Z,9.27
2022-12-14T10:05:25.552Z,9.47
2022-12-14T10:08:05.036Z,8.47
2022-12-14T10:10:40.555Z,7.93
2022-12-14T10:13:18.686Z,8.10
2022-12-14T10:15:55.785Z,7.20
2022-12-14T10:19:01.094Z,6.77
2022-12-14T10:21:42.264Z,7.27
2022-12-14T10:24:16.145Z,7.30
2022-12-14T10:26:49.585Z,7.83
2022-12-14T10:29:28.316Z,8.37
2022-12-14T10:32:06.368Z,7.17
2022-12-14T10:34:35.695Z,7.10
2022-12-14T10:37:12.034Z,7.10
2022-12-14T10:39:49.764Z,6.50
2022-12-14T10:42:24.768Z,6.80
2022-12-14T10:45:31.503Z,7.40
2022-12-14T10:47:54.642Z,7.60
2022-12-14T10:50:28.577Z,7.13
2022-12-14T10:52:58.265Z,7.73
2022-12-14T10:55:33.637Z,6.10
2022-12-14T10:58:01.855Z,6.63
2022-12-14T11:00:30.000Z,8.17
2022-12-14T11:03:01.009Z,6.90
2022-12-14T11:05:37.443Z,8.27
2022-12-14T11:08:07.712Z,9.83
2022-12-14T11:10:39.222Z,13.23
2022-12-14T11:13:15.483Z,8.33
2022-12-14T11:15:45.341Z,6.40
2022-12-14T11:18:31.179Z,6.47
2022-12-14T11:21:01.519Z,8.53
2022-12-14T11:23:31.386Z,8.73
2022-12-14T11:26:01.627Z,6.17
2022-12-14T11:28:37.026Z,7.20
2022-12-14T11:31:08.399Z,7.50
2022-12-14T11:33:49.986Z,7.53
2022-12-14T11:36:25.429Z,8.40
2022-12-14T11:38:57.289Z,7.77
2022-12-14T11:41:25.585Z,7.50
2022-12-14T11:44:06.947Z,7.50
2022-12-14T11:46:46.760Z,6.73
2022-12-14T11:49:27.830Z,6.97
2022-12-14T11:52:01.969Z,7.00
2022-12-14T11:54:30.618Z,6.50
2022-12-14T11:57:03.336Z,7.53
2022-12-14T11:59:38.457Z,6.73
2022-12-14T12:02:23.975Z,8.67
2022-12-14T12:04:59.080Z,6.23
2022-12-14T12:07:33.476Z,45.50
2022-12-14T12:10:14.861Z,17.67
2022-12-14T12:12:54.110Z,6.50
2022-12-14T12:15:26.685Z,9.77
2022-12-14T12:17:58.970Z,6.33
2022-12-14T12:20:36.285Z,9.13
2022-12-14T12:23:12.756Z,8.97
2022-12-14T12:25:43.305Z,6.80
2022-12-14T12:28:18.275Z,9.00
2022-12-14T12:30:50.304Z,7.00
2022-12-14T12:33:32.274Z,7.77
2022-12-14T12:36:05.250Z,6.90
2022-12-14T12:38:49.775Z,8.10
2022-12-14T12:41:30.801Z,6.57
2022-12-14T12:44:05.578Z,6.57
2022-12-14T12:46:48.509Z,6.17
2022-12-14T12:49:27.644Z,7.13
2022-12-14T12:52:02.282Z,8.07
2022-12-14T12:54:35.499Z,7.18
2022-12-14T12:57:06.474Z,7.80
2022-12-14T12:59:39.294Z,7.10
2022-12-14T13:02:21.235Z,6.70
2022-12-14T13:04:53.064Z,8.27
2022-12-14T13:07:33.093Z,7.93
2022-12-14T13:10:06.079Z,9.00
2022-12-14T13:12:37.757Z,14.40
2022-12-14T13:15:14.863Z,13.23
2022-12-14T13:17:46.738Z,9.87
2022-12-14T13:20:22.123Z,10.17
2022-12-14T13:22:52.249Z,6.93
2022-12-14T13:25:26.159Z,7.13
2022-12-14T13:28:08.412Z,7.70
2022-12-14T13:30:49.574Z,8.47
2022-12-14T13:33:37.852Z,17.17
2022-12-14T13:36:37.994Z,10.43
2022-12-14T13:39:39.261Z,9.27
2022-12-14T13:42:09.383Z,8.75
2022-12-14T13:44:54.631Z,8.93
2022-12-14T13:47:26.751Z,7.87
2022-12-14T13:50:35.469Z,7.83
2022-12-14T13:52:48.840Z,7.70
2022-12-14T13:55:28.535Z,8.63
2022-12-14T13:58:15.124Z,9.47
2022-12-14T14:00:58.428Z,9.53
2022-12-14T14:03:42.709Z,8.83
2022-12-14T14:06:18.702Z,9.63
2022-12-14T14:08:48.939Z,8.30
2022-12-14T14:11:55.108Z,8.27
2022-12-14T14:14:37.522Z,8.47
2022-12-14T14:17:13.303Z,9.02
2022-12-14T14:19:43.374Z,7.23
2022-12-14T14:22:23.827Z,8.13
2022-12-14T14:24:58.451Z,8.93
2022-12-14T14:27:31.009Z,7.33
2022-12-14T14:29:59.237Z,7.23
2022-12-14T14:32:40.622Z,9.30
2022-12-14T14:35:21.440Z,8.57
2022-12-14T14:37:58.205Z,12.97
2022-12-14T14:40:58.319Z,9.83
2022-12-14T14:43:28.531Z,9.90
2022-12-14T14:45:59.847Z,10.87
2022-12-14T14:48:34.759Z,12.50
2022-12-14T14:51:09.887Z,13.93
2022-12-14T14:53:39.279Z,10.60
2022-12-14T14:56:14.156Z,9.03
2022-12-14T14:58:44.135Z,9.30
2022-12-14T15:01:30.727Z,11.33
2022-12-14T15:04:03.150Z,13.20
2022-12-14T15:06:33.681Z,11.43
2022-12-14T15:09:06.445Z,11.50
2022-12-14T15:11:43.607Z,10.00
2022-12-14T15:14:27.537Z,10.53
2022-12-14T15:16:55.568Z,10.37
2022-12-14T15:19:26.164Z,8.17
2022-12-14T15:21:56.731Z,9.40
2022-12-14T15:24:25.928Z,9.57
2022-12-14T15:26:54.868Z,8.63
2022-12-14T15:29:28.746Z,8.87
2022-12-14T15:32:00.571Z,9.67
2022-12-14T15:34:29.382Z,9.10
2022-12-14T15:36:58.551Z,10.43
2022-12-14T15:39:33.581Z,11.47
2022-12-14T15:42:10.334Z,8.53
2022-12-14T15:44:43.781Z,9.43
2022-12-14T15:47:32.616Z,9.07
2022-12-14T15:50:16.700Z,9.63
2022-12-14T15:52:46.598Z,10.90
2022-12-14T15:55:27.934Z,9.87
2022-12-14T15:57:56.149Z,11.37
2022-12-14T16:00:26.205Z,9.70
2022-12-14T16:02:54.775Z,9.30
2022-12-14T16:05:23.877Z,12.90
2022-12-14T16:07:55.057Z,11.73
2022-12-14T16:10:26.324Z,9.60
2022-12-14T16:12:58.823Z,10.07
2022-12-14T16:15:29.967Z,10.03
2022-12-14T16:18:02.573Z,9.83
2022-12-14T16:20:32.901Z,11.40
2022-12-14T16:23:05.870Z,11.30
2022-12-14T16:25:36.473Z,10.73
2022-12-14T16:28:22.245Z,10.03
2022-12-14T16:30:59.277Z,9.33
2022-12-14T16:33:29.395Z,10.10
2022-12-14T16:36:08.110Z,10.53
2022-12-14T16:38:42.251Z,9.97
2022-12-14T16:41:11.463Z,8.90
2022-12-14T16:43:41.837Z,10.47
2022-12-14T16:46:14.788Z,10.97
2022-12-14T16:48:46.086Z,9.73
2022-12-14T16:51:58.075Z,10.13
2022-12-14T16:54:25.455Z,9.50
2022-12-14T16:56:58.327Z,9.27
2022-12-14T16:59:31.200Z,9.37
2022-12-14T17:02:00.909Z,14.63
2022-12-14T17:04:35.383Z,10.90
2022-12-14T17:07:03.969Z,11.23
2022-12-14T17:09:35.224Z,9.80
2022-12-14T17:12:12.283Z,11.10
2022-12-14T17:14:47.574Z,10.00
2022-12-14T17:17:22.239Z,10.63
2022-12-14T17:19:50.348Z,9.77
2022-12-14T17:22:23.844Z,10.03
2022-12-14T17:24:53.185Z,10.03
2022-12-14T17:27:22.762Z,19.23
2022-12-14T17:29:52.473Z,11.97
2022-12-14T17:32:23.421Z,14.40
2022-12-14T17:34:51.413Z,14.00
2022-12-14T17:37:20.973Z,12.83
2022-12-14T17:39:50.127Z,11.63
2022-12-14T17:42:21.322Z,11.20
2022-12-14T17:44:54.940Z,11.63
2022-12-14T17:47:25.379Z,10.80
2022-12-14T17:49:53.587Z,12.93
2022-12-14T17:52:25.299Z,10.73
2022-12-14T17:54:53.460Z,12.23
2022-12-14T17:57:23.883Z,11.83
2022-12-14T18:00:13.014Z,10.57
2022-12-14T18:02:45.402Z,15.50
2022-12-14T18:05:19.139Z,11.50
2022-12-14T18:07:49.636Z,11.90
2022-12-14T18:10:22.436Z,12.20
2022-12-14T18:12:50.826Z,11.73
2022-12-14T18:15:22.042Z,11.63
2022-12-14T18:17:51.608Z,13.07
2022-12-14T18:20:20.406Z,16.27
2022-12-14T18:22:50.017Z,11.90
2022-12-14T18:25:28.925Z,12.57
2022-12-14T18:27:57.309Z,13.07
2022-12-14T18:30:25.612Z,12.50
2022-12-14T18:32:55.422Z,12.07
2022-12-14T18:35:25.353Z,11.90
2022-12-14T18:37:53.724Z,12.83
2022-12-14T18:40:24.027Z,13.70
2022-12-14T18:42:53.525Z,12.77
2022-12-14T18:45:24.376Z,13.73
2022-12-14T18:47:54.576Z,11.80
2022-12-14T18:50:24.255Z,12.67
2022-12-14T18:52:52.304Z,12.63
2022-12-14T18:55:22.756Z,12.70
2022-12-14T18:57:53.383Z,11.77
2022-12-14T19:00:23.397Z,12.43
2022-12-14T19:02:52.149Z,12.70
2022-12-14T19:05:28.340Z,14.97
2022-12-14T19:07:58.672Z,15.47
2022-12-14T19:10:30.411Z,14.40
2022-12-14T19:12:58.723Z,13.50
2022-12-14T19:15:28.980Z,18.43
2022-12-14T19:17:57.751Z,20.13
2022-12-14T19:20:28.906Z,28.90
2022-12-14T19:22:57.372Z,43.43
2022-12-14T19:25:26.248Z,32.67
2022-12-14T19:28:30.288Z,25.10
2022-12-14T19:30:44.734Z,15.27
2022-12-14T19:33:13.220Z,15.70
2022-12-14T19:35:43.519Z,21.97
2022-12-14T19:38:15.019Z,17.97
2022-12-14T19:40:46.114Z,13.37
2022-12-14T19:43:14.510Z,12.87
2022-12-14T19:45:42.564Z,11.07
2022-12-14T19:48:13.297Z,11.83
2022-12-14T19:50:43.795Z,14.03
2022-12-14T19:53:23.181Z,10.77
2022-12-14T19:55:54.133Z,14.30
2022-12-14T19:58:24.845Z,15.03
2022-12-14T20:00:53.112Z,13.93
2022-12-14T20:03:21.853Z,13.93
2022-12-14T20:05:53.102Z,22.67
2022-12-14T20:08:21.353Z,16.93
2022-12-14T20:10:49.441Z,19.80
2022-12-14T20:13:17.495Z,19.90
2022-12-14T20:15:49.509Z,18.53
2022-12-14T20:18:17.627Z,19.97
2022-12-14T20:20:46.098Z,19.80
2022-12-14T20:23:20.517Z,19.33
2022-12-14T20:25:49.064Z,19.33
2022-12-14T20:28:17.292Z,19.03
2022-12-14T20:30:46.508Z,20.93
2022-12-14T20:33:15.312Z,21.30
2022-12-14T20:35:43.351Z,21.00
2022-12-14T20:38:11.456Z,19.67
2022-12-14T20:40:40.960Z,23.07
2022-12-14T20:43:09.050Z,20.37
2022-12-14T20:45:39.200Z,18.13
2022-12-14T20:48:08.509Z,16.10
2022-12-14T20:50:36.901Z,16.90
2022-12-14T20:53:05.105Z,17.80
2022-12-14T20:55:35.203Z,17.63
2022-12-14T20:58:04.704Z,16.87
2022-12-14T21:00:33.036Z,19.20
2022-12-14T21:03:01.337Z,18.63
2022-12-14T21:05:29.689Z,17.10
2022-12-14T21:07:57.784Z,18.17
2022-12-14T21:10:25.866Z,19.60
2022-12-14T21:12:54.008Z,22.33
2022-12-14T21:15:23.457Z,19.40
2022-12-14T21:17:51.597Z,19.23
2022-12-14T21:20:20.162Z,18.00
2022-12-14T21:22:48.439Z,16.63
2022-12-14T21:25:16.575Z,18.43
2022-12-14T21:27:44.692Z,18.23
2022-12-14T21:30:13.572Z,15.97
2022-12-14T21:32:43.401Z,15.83
2022-12-14T21:35:13.144Z,15.50
2022-12-14T21:37:41.175Z,17.13
2022-12-14T21:40:30.869Z,18.37
2022-12-14T21:42:57.966Z,17.90
2022-12-14T21:45:26.134Z,17.10
2022-12-14T21:47:55.803Z,17.30
2022-12-14T21:50:23.935Z,16.43
2022-12-14T21:52:51.986Z,16.80
2022-12-14T21:55:20.209Z,17.73
2022-12-14T21:58:05.644Z,16.73
2022-12-14T22:00:33.719Z,14.37
2022-12-14T22:03:03.270Z,10.97
2022-12-14T22:05:31.349Z,14.83
2022-12-14T22:07:59.529Z,14.40
2022-12-14T22:10:27.582Z,16.40
2022-12-14T22:12:55.590Z,14.57
2022-12-14T22:15:23.608Z,14.63
2022-12-14T22:17:51.948Z,14.63
2022-12-14T22:20:21.432Z,16.20
2022-12-14T22:22:49.456Z,15.47
2022-12-14T22:25:17.676Z,14.10
2022-12-14T22:27:50.193Z,14.20
2022-12-14T22:30:18.915Z,15.53
2022-12-14T22:32:47.771Z,13.67
2022-12-14T22:35:15.978Z,14.40
2022-12-14T22:37:45.272Z,15.30
2022-12-14T22:40:14.133Z,14.00
2022-12-14T22:42:42.113Z,13.93
2022-12-14T22:45:10.955Z,14.67
2022-12-14T22:47:38.961Z,14.37
2022-12-14T22:50:08.202Z,14.17
2022-12-14T22:52:36.267Z,14.20
2022-12-14T22:55:06.439Z,13.07
2022-12-14T22:57:41.381Z,13.77
2022-12-14T23:00:13.214Z,12.47
2022-12-14T23:02:45.368Z,14.10
2022-12-14T23:05:15.988Z,15.33
2022-12-14T23:07:44.019Z,16.20
2022-12-14T23:10:30.672Z,14.17
2022-12-14T23:13:16.137Z,13.73
2022-12-14T23:16:01.763Z,15.43
2022-12-14T23:18:47.344Z,13.20
2022-12-14T23:21:32.761Z,14.87
2022-12-14T23:24:18.652Z,15.30
2022-12-14T23:27:09.279Z,16.37
2022-12-14T23:29:55.686Z,14.77
2022-12-14T23:32:41.230Z,14.93
2022-12-14T23:35:27.191Z,14.20
2022-12-14T23:38:12.516Z,16.10
2022-12-14T23:40:58.156Z,14.77
2022-12-14T23:43:44.852Z,14.97
2022-12-14T23:46:30.477Z,16.33
2022-12-14T23:49:16.445Z,18.00
2022-12-14T23:52:02.401Z,17.47
2022-12-14T23:54:48.332Z,17.43
2022-12-14T23:57:33.714Z,19.03
